createdAt,value
2019-02-19T00:01:15.069Z,50.38
2019-02-19T00:04:17.335Z,50.35
2019-02-19T00:07:19.395Z,50.30
2019-02-19T00:10:21.602Z,50.21
2019-02-19T00:13:23.701Z,49.92
2019-02-19T00:16:26.007Z,49.70
2019-02-19T00:19:28.254Z,49.63
2019-02-19T00:22:30.371Z,49.68
2019-02-19T00:25:32.524Z,49.66
2019-02-19T00:28:34.864Z,49.64
2019-02-19T00:31:36.963Z,49.83
2019-02-19T00:34:39.194Z,49.94
2019-02-19T00:37:41.300Z,49.94
2019-02-19T00:40:43.430Z,50.70
2019-02-19T00:43:46.986Z,50.93
2019-02-19T00:46:51.140Z,50.69
2019-02-19T00:53:32.430Z,50.34
2019-02-19T01:11:06.029Z,50.53
2019-02-19T01:14:08.241Z,50.95
2019-02-19T01:17:13.778Z,50.68
2019-02-19T01:20:15.914Z,50.63
2019-02-19T01:23:18.315Z,50.80
2019-02-19T01:26:20.494Z,50.92
2019-02-19T01:29:23.415Z,51.19
2019-02-19T01:32:25.465Z,51.13
2019-02-19T01:35:27.695Z,51.00
2019-02-19T01:38:29.798Z,50.94
2019-02-19T01:41:31.890Z,50.89
2019-02-19T01:44:33.932Z,50.78
2019-02-19T01:47:36.078Z,51.38
2019-02-19T01:50:38.105Z,51.80
2019-02-19T01:53:40.226Z,51.87
2019-02-19T01:56:44.274Z,51.65
2019-02-19T01:59:47.272Z,52.21
2019-02-19T02:02:49.297Z,51.82
2019-02-19T02:05:51.514Z,51.96
2019-02-19T02:08:53.711Z,51.86
2019-02-19T02:11:55.961Z,51.66
2019-02-19T02:14:58.306Z,51.22
2019-02-19T02:18:01.098Z,50.92
2019-02-19T02:31:56.806Z,51.12
2019-02-19T02:34:59.646Z,51.50
2019-02-19T02:38:01.745Z,52.62
2019-02-19T02:41:05.829Z,52.55
2019-02-19T02:44:07.896Z,52.53
2019-02-19T02:47:10.099Z,52.36
2019-02-19T02:50:12.490Z,52.27
2019-02-19T02:53:15.866Z,52.19
2019-02-19T02:56:18.060Z,52.14
2019-02-19T02:59:20.009Z,51.96
2019-02-19T03:02:22.117Z,51.78
2019-02-19T03:05:25.339Z,51.76
2019-02-19T03:08:27.520Z,52.05
2019-02-19T03:11:29.606Z,52.11
2019-02-19T03:14:31.766Z,52.27
2019-02-19T03:17:33.789Z,52.73
2019-02-19T03:20:36.436Z,53.22
2019-02-19T03:27:15.840Z,53.05
2019-02-19T03:30:18.041Z,52.95
2019-02-19T03:33:20.443Z,53.21
2019-02-19T03:36:22.735Z,53.17
2019-02-19T03:39:24.808Z,53.45
2019-02-19T03:42:26.942Z,53.62
2019-02-19T03:45:29.212Z,53.46
2019-02-19T03:48:31.290Z,53.29
2019-02-19T03:51:33.667Z,53.41
2019-02-19T03:54:35.724Z,53.25
2019-02-19T03:57:38.501Z,53.28
2019-02-19T04:00:40.636Z,53.35
2019-02-19T04:03:42.803Z,53.41
2019-02-19T04:06:44.919Z,53.53
2019-02-19T04:09:47.132Z,53.61
2019-02-19T04:12:49.348Z,53.65
2019-02-19T04:15:53.339Z,53.55
2019-02-19T04:18:56.206Z,53.37
2019-02-19T04:21:58.577Z,53.33
2019-02-19T04:25:01.040Z,53.48
2019-02-19T04:28:04.998Z,53.33
2019-02-19T04:31:07.140Z,53.53
2019-02-19T04:34:09.141Z,53.44
2019-02-19T04:37:11.953Z,53.43
2019-02-19T04:40:14.040Z,53.26
2019-02-19T04:43:17.156Z,53.20
2019-02-19T04:46:19.190Z,53.23
2019-02-19T04:49:21.202Z,53.38
2019-02-19T04:52:23.310Z,53.08
2019-02-19T04:55:25.310Z,53.00
2019-02-19T04:58:27.182Z,52.88
2019-02-19T05:01:29.255Z,53.13
2019-02-19T05:04:31.236Z,53.12
2019-02-19T05:07:33.180Z,53.20
2019-02-19T05:10:35.172Z,53.07
2019-02-19T05:13:37.133Z,52.95
2019-02-19T05:16:41.040Z,52.93
2019-02-19T05:19:42.952Z,52.87
2019-02-19T05:22:45.289Z,53.00
2019-02-19T05:25:47.235Z,53.03
2019-02-19T05:28:49.259Z,52.88
2019-02-19T05:31:51.295Z,52.74
2019-02-19T05:34:53.444Z,52.72
2019-02-19T05:37:55.745Z,52.81
2019-02-19T05:40:57.715Z,52.75
2019-02-19T05:43:59.634Z,52.70
2019-02-19T05:47:01.482Z,52.58
2019-02-19T05:50:05.673Z,52.48
2019-02-19T05:53:07.661Z,52.46
2019-02-19T05:56:09.629Z,52.52
2019-02-19T05:59:11.500Z,52.62
2019-02-19T06:02:13.453Z,52.76
2019-02-19T06:05:15.405Z,52.88
2019-02-19T06:08:17.356Z,52.99
2019-02-19T06:11:19.244Z,52.96
2019-02-19T06:14:21.121Z,53.12
2019-02-19T06:17:23.074Z,52.94
2019-02-19T06:20:25.455Z,52.49
2019-02-19T06:23:31.643Z,51.97
2019-02-19T06:26:34.534Z,51.38
2019-02-19T06:29:36.502Z,50.79
2019-02-19T06:32:38.553Z,50.15
2019-02-19T06:35:40.391Z,49.67
2019-02-19T06:38:42.315Z,49.17
2019-02-19T06:41:44.190Z,48.97
2019-02-19T06:44:46.078Z,48.87
2019-02-19T06:47:47.993Z,48.55
2019-02-19T06:50:49.902Z,48.11
2019-02-19T06:53:52.154Z,46.94
2019-02-19T06:56:54.240Z,45.64
2019-02-19T06:59:56.146Z,44.45
2019-02-19T07:03:00.006Z,43.41
2019-02-19T07:06:01.946Z,42.50
2019-02-19T07:09:04.753Z,41.98
2019-02-19T07:12:07.871Z,41.14
2019-02-19T07:15:09.756Z,40.53
2019-02-19T07:18:12.037Z,39.83
2019-02-19T07:21:13.893Z,39.41
2019-02-19T07:24:16.144Z,38.90
2019-02-19T07:27:18.063Z,38.18
2019-02-19T07:30:20.171Z,37.46
2019-02-19T07:33:22.087Z,36.72
2019-02-19T07:36:23.958Z,36.11
2019-02-19T07:39:26.156Z,35.77
2019-02-19T07:42:28.039Z,35.25
2019-02-19T07:45:30.844Z,35.12
2019-02-19T07:48:32.729Z,34.64
2019-02-19T07:51:34.645Z,34.34
2019-02-19T07:54:36.825Z,33.97
2019-02-19T07:57:38.723Z,33.65
2019-02-19T08:00:40.703Z,33.37
2019-02-19T08:03:42.641Z,32.96
2019-02-19T08:06:45.624Z,32.71
2019-02-19T08:09:47.497Z,32.54
2019-02-19T08:12:49.526Z,32.46
2019-02-19T08:15:51.431Z,32.58
2019-02-19T08:18:53.340Z,32.63
2019-02-19T08:21:55.272Z,32.55
2019-02-19T08:24:57.238Z,32.46
2019-02-19T08:27:59.213Z,32.45
2019-02-19T08:31:01.147Z,32.47
2019-02-19T08:34:03.155Z,32.64
2019-02-19T08:37:05.049Z,33.15
2019-02-19T08:40:08.486Z,33.89
2019-02-19T08:43:10.426Z,34.68
2019-02-19T08:46:12.274Z,35.27
2019-02-19T08:49:14.274Z,35.38
2019-02-19T08:52:16.258Z,35.88
2019-02-19T08:55:18.380Z,36.58
2019-02-19T08:58:20.304Z,37.40
2019-02-19T09:01:22.209Z,38.28
2019-02-19T09:04:24.114Z,39.07
2019-02-19T09:07:26.045Z,39.38
2019-02-19T09:10:27.980Z,39.74
2019-02-19T09:13:29.909Z,39.92
2019-02-19T09:16:31.842Z,40.10
2019-02-19T09:19:33.842Z,40.17
2019-02-19T09:22:35.732Z,40.10
2019-02-19T09:25:37.762Z,40.11
2019-02-19T09:28:39.674Z,40.29
2019-02-19T09:31:41.538Z,40.33
2019-02-19T09:34:43.459Z,39.98
2019-02-19T09:37:45.421Z,40.36
2019-02-19T09:40:47.323Z,39.87
2019-02-19T09:43:49.301Z,39.84
2019-02-19T09:46:51.196Z,39.95
2019-02-19T09:49:53.141Z,39.99
2019-02-19T09:52:59.990Z,39.96
2019-02-19T09:55:59.752Z,39.58
2019-02-19T09:59:01.715Z,39.33
2019-02-19T10:02:03.628Z,38.90
2019-02-19T10:05:09.097Z,38.45
2019-02-19T10:08:11.099Z,38.30
2019-02-19T10:11:13.127Z,38.13
2019-02-19T10:14:15.127Z,38.09
2019-02-19T10:17:17.024Z,38.12
2019-02-19T10:20:18.968Z,37.78
2019-02-19T10:23:20.872Z,37.65
2019-02-19T10:26:23.363Z,37.89
2019-02-19T10:29:25.313Z,37.84
2019-02-19T10:32:27.297Z,38.14
2019-02-19T10:35:29.285Z,38.09
2019-02-19T10:38:31.246Z,37.68
2019-02-19T10:41:33.180Z,38.02
2019-02-19T10:44:35.112Z,37.94
2019-02-19T10:47:37.031Z,37.95
2019-02-19T10:50:38.987Z,37.50
2019-02-19T10:53:40.959Z,36.73
2019-02-19T10:56:43.013Z,36.83
2019-02-19T10:59:44.954Z,36.60
2019-02-19T11:02:46.941Z,36.55
2019-02-19T11:05:48.879Z,36.29
2019-02-19T11:08:50.925Z,35.76
2019-02-19T11:11:52.830Z,35.66
2019-02-19T11:14:54.792Z,34.58
2019-02-19T11:17:56.690Z,35.11
2019-02-19T11:20:58.647Z,35.65
2019-02-19T11:24:00.668Z,35.45
2019-02-19T11:27:02.702Z,35.88
2019-02-19T11:30:08.218Z,36.52
2019-02-19T11:33:10.173Z,36.39
2019-02-19T11:36:12.125Z,36.74
2019-02-19T11:39:14.241Z,36.81
2019-02-19T11:42:16.121Z,36.60
2019-02-19T11:45:18.633Z,36.73
2019-02-19T11:48:20.558Z,36.56
2019-02-19T11:51:22.507Z,36.10
2019-02-19T11:54:24.435Z,36.17
2019-02-19T11:57:26.539Z,36.64
2019-02-19T12:00:30.349Z,36.69
2019-02-19T12:03:32.322Z,36.47
2019-02-19T12:06:34.216Z,36.98
2019-02-19T12:09:36.203Z,37.21
2019-02-19T12:12:38.131Z,36.74
2019-02-19T12:15:40.201Z,37.25
2019-02-19T12:18:46.305Z,37.16
2019-02-19T12:21:45.985Z,37.11
2019-02-19T12:24:47.902Z,36.47
2019-02-19T12:27:49.901Z,35.89
2019-02-19T12:30:51.838Z,35.53
2019-02-19T12:33:54.029Z,36.08
2019-02-19T12:36:55.964Z,35.86
2019-02-19T12:39:57.883Z,35.74
2019-02-19T12:42:59.834Z,35.40
2019-02-19T12:46:01.912Z,35.57
2019-02-19T12:49:05.315Z,35.51
2019-02-19T12:52:07.234Z,35.32
2019-02-19T12:55:09.832Z,35.39
2019-02-19T12:58:11.914Z,35.94
2019-02-19T13:01:13.836Z,35.75
2019-02-19T13:04:15.798Z,36.24
2019-02-19T13:07:17.770Z,36.21
2019-02-19T13:10:19.795Z,36.66
2019-02-19T13:13:21.761Z,36.32
2019-02-19T13:16:23.925Z,36.42
2019-02-19T13:19:25.919Z,36.57
2019-02-19T13:22:27.894Z,36.76
2019-02-19T13:25:29.802Z,37.31
2019-02-19T13:28:31.969Z,37.01
2019-02-19T13:31:33.895Z,36.61
2019-02-19T13:34:36.532Z,36.59
2019-02-19T13:37:38.512Z,36.75
2019-02-19T13:40:40.400Z,36.86
2019-02-19T13:43:42.344Z,37.21
2019-02-19T13:46:44.279Z,37.06
2019-02-19T13:49:46.181Z,37.14
2019-02-19T13:52:52.953Z,37.47
2019-02-19T13:55:56.687Z,37.32
2019-02-19T13:58:58.780Z,37.39
2019-02-19T14:02:00.748Z,37.84
2019-02-19T14:05:02.925Z,37.99
2019-02-19T14:08:14.026Z,37.86
2019-02-19T14:11:09.157Z,38.28
2019-02-19T14:14:12.983Z,38.57
2019-02-19T14:17:15.286Z,38.21
2019-02-19T14:20:24.924Z,37.97
2019-02-19T14:23:45.543Z,38.70
2019-02-19T14:26:58.175Z,38.52
2019-02-19T14:30:05.070Z,38.84
2019-02-19T14:33:08.979Z,39.00
2019-02-19T14:36:25.667Z,39.52
2019-02-19T14:39:46.136Z,39.52
2019-02-19T14:42:55.846Z,39.55
2019-02-19T14:46:02.651Z,39.44
2019-02-19T14:49:09.158Z,39.52
2019-02-19T14:52:29.792Z,39.64
2019-02-19T14:55:36.022Z,39.74
2019-02-19T14:58:52.214Z,40.06
2019-02-19T15:02:05.198Z,41.08
2019-02-19T15:05:15.705Z,41.52
2019-02-19T15:08:31.542Z,41.83
2019-02-19T15:11:52.196Z,42.28
2019-02-19T15:14:58.623Z,42.69
2019-02-19T15:18:02.705Z,43.17
2019-02-19T15:21:07.504Z,42.83
2019-02-19T15:24:23.721Z,42.20
2019-02-19T15:27:30.438Z,42.00
2019-02-19T15:30:46.336Z,42.08
2019-02-19T15:34:07.377Z,42.16
2019-02-19T15:37:11.849Z,42.37
2019-02-19T15:40:18.603Z,42.41
2019-02-19T15:43:31.551Z,42.39
2019-02-19T15:46:41.322Z,42.31
2019-02-19T15:49:51.236Z,42.68
2019-02-19T15:52:57.532Z,42.69
2019-02-19T15:56:01.270Z,42.83
2019-02-19T15:59:05.136Z,42.92
2019-02-19T16:02:18.186Z,42.79
2019-02-19T16:05:31.111Z,42.48
2019-02-19T16:08:36.118Z,42.39
2019-02-19T16:11:40.012Z,42.38
2019-02-19T16:15:00.720Z,42.23
2019-02-19T16:18:25.078Z,42.18
2019-02-19T16:21:34.873Z,42.33
2019-02-19T16:24:38.646Z,42.67
2019-02-19T16:27:48.280Z,42.88
2019-02-19T16:30:59.187Z,42.96
2019-02-19T16:34:15.090Z,42.90
2019-02-19T16:37:19.955Z,43.16
2019-02-19T16:40:25.223Z,43.46
2019-02-19T16:43:36.833Z,43.79
2019-02-19T16:46:49.251Z,44.15
2019-02-19T16:50:07.600Z,44.39
2019-02-19T16:53:27.497Z,44.64
2019-02-19T16:56:31.472Z,44.37
2019-02-19T16:59:44.288Z,44.64
2019-02-19T17:02:57.226Z,44.72
2019-02-19T17:06:01.131Z,44.58
2019-02-19T17:09:08.091Z,44.91
2019-02-19T17:12:20.056Z,44.93
2019-02-19T17:15:41.744Z,45.26
2019-02-19T17:18:45.563Z,45.31
2019-02-19T17:21:52.071Z,45.89
2019-02-19T17:25:12.903Z,46.20
2019-02-19T17:28:22.834Z,46.07
2019-02-19T17:31:26.637Z,46.30
2019-02-19T17:34:48.263Z,46.58
2019-02-19T17:37:52.027Z,47.23
2019-02-19T17:40:56.113Z,47.79
2019-02-19T17:44:00.192Z,48.59
2019-02-19T17:47:19.765Z,49.27
2019-02-19T17:50:38.220Z,49.49
2019-02-19T17:53:41.649Z,50.23
2019-02-19T17:56:54.047Z,50.19
2019-02-19T18:00:04.094Z,50.45
2019-02-19T18:03:17.132Z,50.38
2019-02-19T18:06:26.706Z,50.64
2019-02-19T18:09:48.122Z,50.83
2019-02-19T18:12:58.605Z,51.17
2019-02-19T18:16:20.829Z,51.26
2019-02-19T18:19:22.820Z,51.53
2019-02-19T18:22:24.839Z,52.09
2019-02-19T18:25:28.078Z,52.15
2019-02-19T18:28:30.004Z,52.53
2019-02-19T18:31:32.007Z,52.32
2019-02-19T18:34:34.635Z,52.07
2019-02-19T18:37:37.513Z,52.16
2019-02-19T18:40:39.394Z,52.28
2019-02-19T18:43:44.903Z,52.43
2019-02-19T18:46:47.535Z,52.55
2019-02-19T18:49:50.539Z,52.89
2019-02-19T18:52:52.483Z,52.80
2019-02-19T18:55:54.850Z,52.92
2019-02-19T18:58:58.550Z,52.63
2019-02-19T19:02:01.904Z,52.65
2019-02-19T19:05:06.026Z,52.65
2019-02-19T19:08:08.509Z,52.63
2019-02-19T19:11:10.531Z,52.56
2019-02-19T19:14:12.525Z,52.59
2019-02-19T19:17:16.201Z,52.71
2019-02-19T19:20:19.130Z,52.76
2019-02-19T19:23:21.680Z,52.74
2019-02-19T19:26:25.425Z,52.89
2019-02-19T19:29:29.163Z,53.12
2019-02-19T19:32:31.518Z,53.30
2019-02-19T19:35:35.281Z,53.54
2019-02-19T19:38:39.414Z,53.71
2019-02-19T19:41:41.602Z,54.28
2019-02-19T19:44:43.659Z,54.17
2019-02-19T19:47:46.069Z,54.41
2019-02-19T19:50:49.445Z,54.30
2019-02-19T19:53:53.139Z,54.48
2019-02-19T19:56:55.144Z,54.30
2019-02-19T19:59:57.215Z,54.60
2019-02-19T20:03:00.027Z,55.23
2019-02-19T20:06:06.330Z,55.31
2019-02-19T20:09:10.718Z,55.60
2019-02-19T20:12:14.677Z,55.49
2019-02-19T20:15:16.709Z,55.39
2019-02-19T20:18:20.989Z,55.59
2019-02-19T20:21:26.706Z,55.81
2019-02-19T20:24:29.586Z,56.08
2019-02-19T20:27:31.519Z,56.03
2019-02-19T20:30:37.114Z,56.34
2019-02-19T20:33:39.366Z,56.41
2019-02-19T20:36:43.483Z,56.13
2019-02-19T20:39:47.867Z,56.22
2019-02-19T20:42:50.487Z,56.26
2019-02-19T20:45:53.909Z,56.65
2019-02-19T20:48:55.912Z,56.71
2019-02-19T20:51:58.075Z,56.76
2019-02-19T20:55:04.739Z,56.87
2019-02-19T20:58:08.639Z,56.61
2019-02-19T21:01:10.662Z,56.63
2019-02-19T21:04:12.568Z,56.44
2019-02-19T21:07:18.499Z,56.58
2019-02-19T21:10:20.411Z,56.51
2019-02-19T21:13:22.722Z,56.67
2019-02-19T21:16:25.236Z,56.60
2019-02-19T21:19:27.133Z,56.80
2019-02-19T21:22:33.605Z,56.96
2019-02-19T21:25:37.459Z,57.12
2019-02-19T21:28:39.607Z,56.77
2019-02-19T21:31:43.119Z,56.50
2019-02-19T21:34:45.077Z,56.09
2019-02-19T21:37:46.990Z,55.91
2019-02-19T21:40:48.984Z,55.85
2019-02-19T21:43:52.488Z,55.87
2019-02-19T21:46:56.306Z,56.03
2019-02-19T21:49:58.240Z,55.99
2019-02-19T21:53:00.197Z,56.38
2019-02-19T21:56:02.115Z,56.67
2019-02-19T21:59:04.057Z,56.92
2019-02-19T22:02:05.961Z,56.96
2019-02-19T22:05:07.970Z,57.06
2019-02-19T22:08:11.212Z,56.93
2019-02-19T22:11:13.236Z,56.75
2019-02-19T22:14:15.202Z,56.67
2019-02-19T22:17:17.247Z,56.89
2019-02-19T22:20:36.350Z,56.64
2019-02-19T22:23:38.259Z,56.80
2019-02-19T22:26:40.282Z,56.93
2019-02-19T22:29:42.283Z,56.83
2019-02-19T22:32:44.487Z,56.77
2019-02-19T22:35:46.409Z,56.76
2019-02-19T22:38:48.382Z,56.70
2019-02-19T22:41:50.345Z,56.55
2019-02-19T22:44:52.351Z,56.33
2019-02-19T22:47:54.317Z,56.14
2019-02-19T22:50:56.269Z,55.92
2019-02-19T22:54:00.029Z,55.81
2019-02-19T22:57:01.943Z,56.07
2019-02-19T23:00:12.085Z,56.09
2019-02-19T23:03:20.625Z,56.24
2019-02-19T23:06:22.906Z,56.47
2019-02-19T23:09:24.926Z,56.60
2019-02-19T23:12:26.946Z,56.52
2019-02-19T23:15:28.906Z,56.65
2019-02-19T23:18:32.320Z,56.74
2019-02-19T23:21:34.244Z,56.80
2019-02-19T23:24:36.139Z,56.57
2019-02-19T23:27:38.066Z,56.34
2019-02-19T23:30:40.021Z,56.30
2019-02-19T23:33:42.057Z,56.20
2019-02-19T23:36:45.833Z,56.06
2019-02-19T23:39:47.715Z,55.78
2019-02-19T23:42:50.641Z,55.87
2019-02-19T23:45:52.551Z,55.98
2019-02-19T23:48:54.503Z,55.92
2019-02-19T23:51:56.448Z,55.80
2019-02-19T23:54:58.395Z,55.84
2019-02-19T23:58:00.298Z,55.67
